Data for 08/12/2013

Time Sea-Level Adjusted Pressure Absolute Pressure Temperature Relative Humidity Dew Point Precipitation   
(mb) (inHg) (mb) (inHg) (C) (F) (%) (C) (F) (mm) (in)
00:05 1024 30.24 853 25.19 10.9 51.7 64 4.4 40 0 0
00:10 1024 30.24 853 25.19 11.3 52.3 64 4.8 40.6 0 0
00:15 1024 30.24 853 25.19 11.4 52.5 61 4.1 39.4 0 0
00:20 1024 30.24 853 25.19 12.1 53.7 58 4 39.2 0 0
00:25 1024 30.24 853 25.19 12 53.6 64 5.5 41.8 0 0
00:30 1024 30.24 853 25.19 10.8 51.5 64 4.3 39.8 0 0
00:35 1024 30.24 853 25.19 10.9 51.7 62 4 39.2 0 0
00:40 1024 30.24 853 25.19 11.1 52 63 4.4 39.9 0 0
00:45 1024 30.24 853 25.19 10.6 51 66 4.6 40.3 0 0
00:50 1024 30.24 853 25.19 10.1 50.2 68 4.6 40.2 0 0
00:55 1024 30.24 853 25.19 9.4 48.9 69 4.1 39.4 0 0
01:00 1024 30.24 853 25.19 9.4 48.9 68 3.8 38.9 0 0
01:05 1024 30.24 853 25.19 9.8 49.6 67 4 39.2 0 0
01:10 1024 30.24 853 25.19 9.8 49.7 68 4.3 39.7 0 0
01:15 1024 30.24 853 25.19 9.9 49.7 68 4.4 39.8 0 0
01:20 1024 30.24 853 25.19 9.7 49.4 69 4.4 39.9 0 0
01:25 1024 30.24 853 25.19 9.3 48.8 72 4.5 40.1 0 0
01:30 1024 30.24 853 25.19 9.2 48.5 74 4.8 40.7 0 0
01:35 1024 30.24 853 25.19 8.7 47.6 76 4.7 40.5 0 0
01:40 1024 30.24 853 25.19 8.4 47.2 77 4.6 40.3 0 0
01:45 1024 30.24 853 25.19 8 46.3 78 4.4 39.9 0 0
01:50 1024 30.24 853 25.19 8 46.4 77 4.2 39.6 0 0
01:55 1024 30.24 853 25.19 8 46.4 77 4.2 39.6 0 0
02:00 1024 30.24 853 25.19 8 46.4 77 4.2 39.6 0 0
02:05 1023 30.21 853 25.19 7.9 46.3 76 4 39.1 0 0
02:10 1023 30.21 853 25.19 8.2 46.8 75 4.1 39.3 0 0
02:15 1023 30.21 853 25.19 8.3 46.9 74 3.9 38.9 0 0
02:20 1023 30.21 853 25.19 8.6 47.4 72 3.7 38.7 0 0
02:25 1023 30.21 852 25.16 9 48.1 72 4.2 39.5 0 0
02:30 1023 30.21 852 25.16 8.4 47.1 74 4.1 39.4 0 0
02:35 1023 30.21 852 25.16 8.3 46.9 75 4.1 39.4 0 0
02:40 1023 30.21 852 25.16 8.2 46.8 75 4.1 39.4 0 0
02:45 1023 30.21 852 25.16 8.4 47.1 73 3.9 39 0 0
02:50 1023 30.21 852 25.16 8.8 47.9 72 4.1 39.4 0 0
02:55 1023 30.21 852 25.16 8.4 47.2 76 4.5 40.1 0 0
03:00 1023 30.21 852 25.16 8.1 46.5 75 4 39.2 0 0
03:05 1023 30.21 852 25.16 8.1 46.6 75 3.9 39 0 0
03:10 1023 30.21 852 25.16 8.1 46.6 75 4 39.1 0 0
03:15 1023 30.21 852 25.16 8 46.3 76 3.9 39.1 0 0
03:20 1023 30.21 852 25.16 7.9 46.2 76 4 39.2 0 0
03:25 1023 30.21 852 25.16 8.2 46.7 73 3.7 38.6 0 0
03:30 1023 30.21 852 25.16 8.3 47 74 4 39.2 0 0
03:35 1023 30.21 852 25.16 8.2 46.7 75 4.1 39.3 0 0
03:40 1023 30.21 852 25.16 7.8 46.1 75 3.7 38.6 0 0
03:45 1023 30.21 852 25.16 7.6 45.6 75 3.5 38.3 0 0
03:50 1023 30.21 852 25.16 8 46.3 72 3.3 37.9 0 0
03:55 1023 30.21 852 25.16 8.2 46.7 76 4.3 39.7 0 0
04:00 1023 30.21 852 25.16 8 46.4 75 3.9 39 0 0
04:05 1023 30.21 852 25.16 7 44.6 80 3.8 38.8 0 0
04:10 1023 30.21 852 25.16 6.7 44.1 81 3.8 38.8 0 0
04:15 1023 30.21 852 25.16 6.6 43.9 82 3.8 38.9 0 0
04:20 1023 30.21 853 25.19 6.7 44 80 3.5 38.2 0 0
04:25 1023 30.21 852 25.16 6.9 44.3 82 3.9 39.1 0 0
04:30 1023 30.21 852 25.16 6.7 44 82 3.7 38.7 0 0
04:35 1023 30.21 852 25.16 6.9 44.4 80 3.7 38.7 0 0
04:40 1023 30.21 852 25.16 7.1 44.8 79 3.8 38.9 0 0
04:45 1023 30.21 852 25.16 6.8 44.3 83 4.1 39.4 0 0
04:50 1023 30.21 852 25.16 6.8 44.3 81 3.9 39 0 0
04:55 1023 30.21 852 25.16 6.7 44 82 3.9 39 0 0
05:00 1023 30.21 852 25.16 5.8 42.5 85 3.6 38.4 0 0
05:05 1023 30.21 852 25.16 5.6 42.1 86 3.4 38.2 0 0
05:10 1023 30.21 852 25.16 5.8 42.4 85 3.4 38.1 0 0
05:15 1023 30.21 852 25.16 5.4 41.8 88 3.5 38.4 0 0
05:20 1023 30.21 852 25.16 5.6 42.1 86 3.4 38.2 0 0
05:25 1023 30.21 853 25.19 6 42.9 83 3.3 38 0 0
05:30 1023 30.21 853 25.19 6.4 43.5 82 3.5 38.2 0 0
05:35 1023 30.21 853 25.19 6.6 43.8 80 3.4 38.2 0 0
05:40 1023 30.21 853 25.19 6.8 44.3 79 3.5 38.3 0 0
05:45 1023 30.21 853 25.19 6.9 44.4 80 3.7 38.6 0 0
05:50 1023 30.21 853 25.19 6.6 43.9 81 3.5 38.4 0 0
05:55 1023 30.21 853 25.19 7.1 44.7 77 3.4 38.1 0 0
06:00 1023 30.21 853 25.19 7.1 44.7 79 3.6 38.6 0 0
06:05 1023 30.21 853 25.19 7 44.6 79 3.5 38.4 0 0
06:10 1023 30.21 853 25.19 6.9 44.4 80 3.6 38.5 0 0
06:15 1023 30.21 853 25.19 6.6 43.8 81 3.6 38.5 0 0
06:20 1024 30.24 853 25.19 6.9 44.3 80 3.6 38.5 0 0
06:25 1024 30.24 853 25.19 6.7 44.1 80 3.6 38.5 0 0
06:30 1024 30.24 853 25.19 7.2 44.9 78 3.6 38.6 0 0
06:35 1024 30.24 853 25.19 7.5 45.4 76 3.5 38.3 0 0
06:40 1024 30.24 853 25.19 7.7 45.9 75 3.6 38.5 0 0
06:45 1024 30.24 853 25.19 7.8 46 77 4 39.3 0 0
06:50 1024 30.24 853 25.19 6.6 43.9 82 3.7 38.7 0 0
06:55 1024 30.24 853 25.19 6.4 43.4 83 3.6 38.5 0 0
07:00 1024 30.24 853 25.19 6.5 43.6 83 3.8 38.8 0 0
07:05 1024 30.24 853 25.19 6.6 43.9 82 3.7 38.7 0 0
07:10 1024 30.24 853 25.19 6.8 44.3 82 4 39.2 0 0
07:15 1024 30.24 853 25.19 7.3 45.1 80 4.2 39.5 0 0
07:20 1024 30.24 853 25.19 7.6 45.6 80 4.3 39.7 0 0
07:25 1024 30.24 853 25.19 8.3 46.9 75 4.1 39.3 0 0
07:30 1024 30.24 853 25.19 9.8 49.6 70 4.6 40.3 0 0
07:35 1024 30.24 853 25.19 10.5 50.9 70 5.3 41.5 0 0
07:40 1024 30.24 853 25.19 10.9 51.6 70 5.7 42.2 0 0
07:45 1024 30.24 854 25.22 11.2 52.1 72 6.4 43.4 0 0
07:50 1024 30.24 853 25.19 11.7 53 68 6 42.8 0 0
07:55 1024 30.24 854 25.22 12.4 54.2 67 6.4 43.4 0 0
08:00 1024 30.24 854 25.22 12.8 55 67 6.9 44.5 0 0
08:05 1024 30.24 854 25.22 13.1 55.6 64 6.6 43.8 0 0
08:10 1024 30.24 854 25.22 14 57.1 59 6.2 43.2 0 0
08:15 1024 30.24 854 25.22 14.9 58.7 56 6.3 43.4 0 0
08:20 1025 30.27 854 25.22 15.6 60 55 6.7 44.1 0 0
08:25 1024 30.24 854 25.22 15.6 60.2 58 7.5 45.5 0 0
08:30 1024 30.24 854 25.22 16 60.9 52 6.4 43.4 0 0
08:35 1024 30.24 854 25.22 16.6 61.8 51 6.6 43.8 0 0
08:40 1024 30.24 854 25.22 16.9 62.4 48 6 42.9 0 0
08:45 1024 30.24 854 25.22 17.3 63.2 47 6 42.8 0 0
08:50 1024 30.24 853 25.19 17.1 62.7 50 6.7 44.1 0 0
08:55 1024 30.24 853 25.19 16.1 60.9 54 7 44.6 0 0
09:00 1024 30.24 853 25.19 16.1 60.9 55 7.1 44.8 0 0
09:05 1024 30.24 853 25.19 16.9 62.3 52 7 44.6 0 0
09:10 1024 30.24 853 25.19 17.6 63.6 48 6.7 44 0 0
09:15 1024 30.24 853 25.19 17.3 63.1 55 8.2 46.8 0 0
09:20 1024 30.24 853 25.19 17.9 64.2 45 5.8 42.5 0 0
09:25 1024 30.24 853 25.19 18.4 65.2 47 7 44.6 0 0
09:30 1024 30.24 853 25.19 18.8 65.9 42 5.7 42.3 0 0
09:35 1024 30.24 853 25.19 19 66.2 44 6.5 43.7 0 0
09:40 1024 30.24 853 25.19 18.9 66 44 6.4 43.5 0 0
09:45 1024 30.24 853 25.19 18.5 65.2 48 7.4 45.3 0 0
09:50 1024 30.24 853 25.19 19.1 66.3 44 6.6 44 0 0
09:55 1024 30.24 853 25.19 19.6 67.3 42 6.5 43.7 0 0
10:00 1024 30.24 853 25.19 20 68 39 5.6 42.1 0 0
10:05 1024 30.24 853 25.19 20.5 68.9 35 4.6 40.4 0 0
10:10 1024 30.24 853 25.19 20.7 69.3 40 6.8 44.2 0 0
10:15 1024 30.24 853 25.19 20.7 69.2 37 5.6 42.1 0 0
10:20 1024 30.24 853 25.19 21.2 70.1 36 5.5 41.9 0 0
10:25 1024 30.24 853 25.19 21.3 70.4 34 4.9 40.7 0 0
10:30 1024 30.24 853 25.19 21.7 71.1 31 4.3 39.7 0 0
10:35 1023 30.21 853 25.19 22.6 72.7 34 6.1 43 0 0
10:40 1023 30.21 853 25.19 22.9 73.2 34 6.4 43.4 0 0
10:45 1023 30.21 853 25.19 23.1 73.5 30 4.8 40.7 0 0
10:50 1023 30.21 853 25.19 22.8 73 34 6.4 43.4 0 0
10:55 1023 30.21 853 25.19 23 73.4 30 4.7 40.5 0 0
11:00 1023 30.21 853 25.19 23.2 73.8 33 6.4 43.6 0 0
11:05 1023 30.21 853 25.19 23.7 74.7 31 5.9 42.6 0 0
11:10 1024 30.24 853 25.19 23.6 74.5 32 6.3 43.3 0 0
11:15 1024 30.24 853 25.19 23 73.3 38 8.2 46.7 0 0
11:20 1024 30.24 853 25.19 21.9 71.5 38 7.2 45 0 0
11:25 1024 30.24 853 25.19 21.8 71.2 39 7.4 45.3 0 0
11:30 1024 30.24 853 25.19 22.1 71.7 37 7 44.6 0 0
11:35 1024 30.24 853 25.19 21.8 71.2 39 7.5 45.5 0 0
11:40 1024 30.24 853 25.19 21.8 71.3 35 6 42.8 0 0
11:45 1024 30.24 853 25.19 22.1 71.8 37 7 44.6 0 0
11:50 1024 30.24 853 25.19 22.3 72.2 41 8.5 47.3 0 0
11:55 1024 30.24 853 25.19 22.6 72.8 33 5.8 42.4 0 0
12:00 1024 30.24 853 25.19 22.7 72.9 37 7.4 45.2 0 0
12:05 1024 30.24 853 25.19 22.9 73.1 37 7.5 45.5 0 0
12:10 1024 30.24 853 25.19 23.3 74 33 6.2 43.1 0 0
12:15 1024 30.24 853 25.19 23.3 74 38 8.2 46.8 0 0
12:20 1024 30.24 853 25.19 23.5 74.3 36 7.8 46 0 0
12:25 1024 30.24 853 25.19 23.2 73.7 32 5.7 42.3 0 0
12:30 1024 30.24 853 25.19 22.9 73.2 33 5.8 42.4 0 0
12:35 1024 30.24 853 25.19 23.4 74.2 35 7.5 45.4 0 0
12:40 1024 30.24 853 25.19 23.6 74.5 34 6.9 44.4 0 0
12:45 1024 30.24 853 25.19 23.8 74.8 36 7.9 46.3 0 0
12:50 1023 30.21 853 25.19 23.8 74.8 31 6 42.8 0 0
12:55 1023 30.21 853 25.19 24.2 75.5 32 6.8 44.2 0 0
13:00 1023 30.21 853 25.19 24.1 75.4 32 6.8 44.2 0 0
13:05 1023 30.21 853 25.19 23.5 74.2 31 5.7 42.2 0 0
13:10 1023 30.21 853 25.19 23.1 73.5 42 9.8 49.6 0 0
13:15 1023 30.21 852 25.16 22.8 73 41 8.9 48 0 0
13:20 1023 30.21 852 25.16 22.4 72.3 42 9.1 48.4 0 0
13:25 1023 30.21 852 25.16 22.1 71.8 49 11.1 52.1 0 0
13:30 1023 30.21 852 25.16 22 71.6 51 11.7 53 0 0
13:35 1023 30.21 852 25.16 21.9 71.4 53 11.9 53.5 0 0
13:40 1023 30.21 852 25.16 22 71.6 51 11.5 52.7 0 0
13:45 1023 30.21 852 25.16 22.4 72.2 39 8 46.4 0 0
13:50 1023 30.21 852 25.16 22.6 72.7 42 9.3 48.7 0 0
13:55 1023 30.21 852 25.16 23 73.4 41 9.2 48.6 0 0
14:00 1023 30.21 852 25.16 23.4 74.2 37 8.1 46.6 0 0
14:05 1023 30.21 852 25.16 23.5 74.3 43 10.3 50.6 0 0
14:10 1023 30.21 852 25.16 23.2 73.8 42 9.6 49.4 0 0
14:15 1023 30.21 852 25.16 23 73.5 41 9.4 49 0 0
14:20 1023 30.21 852 25.16 23 73.3 43 9.8 49.6 0 0
14:25 1023 30.21 852 25.16 23.1 73.6 38 8.3 46.9 0 0
14:30 1023 30.21 852 25.16 23.6 74.4 33 6.4 43.5 0 0
14:35 1023 30.21 852 25.16 24.1 75.3 40 9.9 49.9 0 0
14:40 1023 30.21 852 25.16 24.2 75.6 38 9.3 48.8 0 0
14:45 1023 30.21 852 25.16 24.2 75.6 30 5.7 42.3 0 0
14:50 1023 30.21 852 25.16 24.6 76.2 28 5.3 41.5 0 0
14:55 1023 30.21 852 25.16 24.6 76.3 27 4.6 40.2 0 0
15:00 1023 30.21 852 25.16 24.7 76.5 24 2.9 37.2 0 0
15:05 1023 30.21 852 25.16 24.7 76.4 24 3.1 37.7 0 0
15:10 1023 30.21 852 25.16 24.8 76.7 23 2.5 36.5 0 0
15:15 1023 30.21 852 25.16 25.2 77.3 24 3.2 37.7 0 0
15:20 1023 30.21 852 25.16 25.2 77.4 21 1.7 35 0 0
15:25 1022 30.18 852 25.16 25.6 78.1 21 1.8 35.3 0 0
15:30 1022 30.18 852 25.16 25.7 78.3 25 4.3 39.7 0 0
15:35 1022 30.18 852 25.16 25.8 78.4 22 3 37.4 0 0
15:40 1022 30.18 852 25.16 25.5 78 23 3.3 37.9 0 0
15:45 1022 30.18 852 25.16 25.4 77.6 26 4.5 40 0 0
15:50 1022 30.18 852 25.16 25.2 77.4 26 4.6 40.3 0 0
15:55 1022 30.18 852 25.16 25.2 77.4 24 3.2 37.7 0 0
16:00 1022 30.18 852 25.16 25 76.9 27 4.8 40.6 0 0
16:05 1022 30.18 852 25.16 25 76.9 27 5.1 41.2 0 0
16:10 1023 30.21 852 25.16 25 76.9 25 3.8 38.9 0 0
16:15 1023 30.21 852 25.16 25.1 77.1 29 6 42.9 0 0
16:20 1023 30.21 852 25.16 25.1 77.2 28 5.4 41.7 0 0
16:25 1023 30.21 852 25.16 25 77.1 31 6.9 44.4 0 0
16:30 1023 30.21 852 25.16 25.1 77.3 28 5.4 41.7 0 0
16:35 1023 30.21 852 25.16 24.8 76.6 27 4.6 40.3 0 0
16:40 1023 30.21 852 25.16 24.2 75.6 25 3.3 37.9 0 0
16:45 1023 30.21 852 25.16 23.7 74.7 28 4.1 39.4 0 0
16:50 1023 30.21 852 25.16 23.3 73.9 29 4.7 40.4 0 0
16:55 1023 30.21 852 25.16 23.1 73.5 29 4.3 39.7 0 0
17:00 1023 30.21 852 25.16 23 73.4 29 4.4 40 0 0
17:05 1023 30.21 852 25.16 22.9 73.2 30 4.6 40.3 0 0
17:10 1023 30.21 852 25.16 22.8 73.1 30 4.4 39.9 0 0
17:15 1023 30.21 852 25.16 22.8 73 29 4 39.2 0 0
17:20 1023 30.21 852 25.16 22.7 72.8 30 4.4 39.9 0 0
17:25 1023 30.21 852 25.16 22.7 72.8 30 4.4 39.9 0 0
17:30 1023 30.21 852 25.16 22.9 73.2 29 4.2 39.6 0 0
17:35 1023 30.21 852 25.16 23.1 73.7 29 4.2 39.6 0 0
17:40 1022 30.18 852 25.16 23.3 74 30 4.9 40.9 0 0
17:45 1022 30.18 851 25.13 23.3 74 31 5.4 41.7 0 0
17:50 1022 30.18 851 25.13 23.3 74 27 3.6 38.6 0 0
17:55 1022 30.18 851 25.13 23.7 74.7 30 5.1 41.2 0 0
18:00 1022 30.18 851 25.13 23.8 74.8 31 5.7 42.3 0 0
18:05 1022 30.18 851 25.13 23.8 74.9 33 6.7 44.1 0 0
18:10 1022 30.18 851 25.13 23.5 74.3 45 10.9 51.6 0 0
18:15 1022 30.18 851 25.13 22.6 72.7 39 8.2 46.8 0 0
18:20 1022 30.18 851 25.13 23 73.4 32 5.8 42.5 0 0
18:25 1022 30.18 851 25.13 23.6 74.5 28 4.3 39.7 0 0
18:30 1022 30.18 851 25.13 23.9 75 27 4 39.3 0 0
18:35 1022 30.18 851 25.13 23.9 75 30 5.4 41.6 0 0
18:40 1022 30.18 851 25.13 24.2 75.5 25 2.9 37.3 0 0
18:45 1022 30.18 852 25.16 24.3 75.7 28 4.7 40.4 0 0
18:50 1022 30.18 852 25.16 24 75.1 31 6.1 43.1 0 0
18:55 1022 30.18 852 25.16 22.8 73.1 38 7.9 46.3 0 0
19:00 1023 30.21 852 25.16 21.5 70.7 36 6.1 42.9 0 0
19:05 1023 30.21 852 25.16 21.3 70.4 35 5.5 41.8 0 0
19:10 1023 30.21 852 25.16 21.6 70.8 31 3.8 38.8 0 0
19:15 1023 30.21 852 25.16 21.7 71.1 32 4.6 40.4 0 0
19:20 1023 30.21 852 25.16 21.6 70.9 32 4.5 40.1 0 0
19:25 1023 30.21 852 25.16 21.1 69.9 38 6.5 43.7 0 0
19:30 1023 30.21 852 25.16 20.4 68.8 41 6.8 44.2 0 0
19:35 1023 30.21 852 25.16 19.8 67.6 45 7.8 46.1 0 0
19:40 1023 30.21 852 25.16 19.2 66.5 42 6 42.7 0 0
19:45 1023 30.21 852 25.16 19.6 67.2 42 6.4 43.6 0 0
19:50 1023 30.21 852 25.16 19.8 67.6 42 6.5 43.8 0 0
19:55 1023 30.21 852 25.16 19.8 67.6 47 8.3 46.9 0 0
20:00 1023 30.21 852 25.16 18.8 65.9 47 7.3 45.1 0 0
20:05 1023 30.21 852 25.16 18.5 65.3 45 6.6 43.8 0 0
20:10 1023 30.21 852 25.16 18.3 65 46 6.6 43.9 0 0
20:15 1023 30.21 852 25.16 17.9 64.3 47 6.7 44 0 0
20:20 1023 30.21 852 25.16 17.4 63.4 48 6.5 43.7 0 0
20:25 1023 30.21 852 25.16 16.8 62.2 54 7.5 45.5 0 0
20:30 1023 30.21 853 25.19 16.2 61.2 48 5.3 41.6 0 0
20:35 1023 30.21 853 25.19 16.5 61.6 50 6.1 43 0 0
20:40 1023 30.21 853 25.19 16.3 61.3 51 6.3 43.3 0 0
20:45 1023 30.21 853 25.19 15.6 60.1 54 6.4 43.4 0 0
20:50 1023 30.21 853 25.19 15.1 59.1 50 4.9 40.8 0 0
20:55 1023 30.21 853 25.19 16 60.8 49 5.5 41.8 0 0
21:00 1024 30.24 853 25.19 15.9 60.6 50 5.6 42.1 0 0
21:05 1024 30.24 853 25.19 16.1 61 47 5 41.1 0 0
21:10 1024 30.24 853 25.19 16.6 61.8 47 5.4 41.7 0 0
21:15 1024 30.24 853 25.19 16.2 61.2 49 5.7 42.2 0 0
21:20 1024 30.24 853 25.19 16.1 61 47 5 41.1 0 0
21:25 1024 30.24 853 25.19 16 60.7 49 5.4 41.7 0 0
21:30 1024 30.24 853 25.19 15.9 60.6 48 4.9 40.9 0 0
21:35 1024 30.24 853 25.19 16.4 61.5 44 4.2 39.6 0 0
21:40 1024 30.24 853 25.19 17.4 63.2 42 4.3 39.7 0 0
21:45 1024 30.24 853 25.19 18 64.4 40 4.2 39.5 0 0
21:50 1024 30.24 853 25.19 18.7 65.6 38 4 39.3 0 0
21:55 1024 30.24 853 25.19 18.7 65.6 40 4.9 40.8 0 0
22:00 1024 30.24 854 25.22 17.4 63.4 48 6.6 43.8 0 0
22:05 1024 30.24 854 25.22 15.5 59.9 54 6.2 43.2 0 0
22:10 1025 30.27 854 25.22 14.8 58.6 52 5.2 41.4 0 0
22:15 1025 30.27 854 25.22 15.1 59.1 48 4.2 39.6 0 0
22:20 1025 30.27 854 25.22 16.4 61.4 45 4.6 40.3 0 0
22:25 1025 30.27 854 25.22 16.7 62 38 2.4 36.4 0 0
22:30 1025 30.27 854 25.22 17.7 63.8 41 4.3 39.8 0 0
22:35 1025 30.27 854 25.22 16.9 62.4 45 5 41.1 0 0
22:40 1025 30.27 854 25.22 15.8 60.4 50 5.4 41.6 0 0
22:45 1025 30.27 854 25.22 14.6 58.3 52 5 41 0 0
22:50 1025 30.27 854 25.22 14.1 57.4 52 4.4 39.9 0 0
22:55 1025 30.27 854 25.22 14.1 57.3 54 4.9 40.7 0 0
23:00 1025 30.27 854 25.22 13.5 56.3 57 5.1 41.3 0 0
23:05 1025 30.27 854 25.22 13.8 56.9 52 4.3 39.7 0 0
23:10 1025 30.27 854 25.22 13.8 56.8 56 5.3 41.5 0 0
23:15 1025 30.27 854 25.22 12.8 55 61 5.6 42.1 0 0
23:20 1025 30.27 854 25.22 12 53.6 64 5.5 41.9 0 0
23:25 1025 30.27 855 25.25 11.8 53.2 63 5.1 41.2 0 0
23:30 1025 30.27 855 25.25 11.6 52.9 63 4.9 40.8 0 0
23:35 1025 30.27 854 25.22 12 53.5 61 4.7 40.5 0 0
23:40 1025 30.27 854 25.22 11.9 53.3 64 5.3 41.5 0 0
23:45 1025 30.27 854 25.22 12 53.7 58 4.2 39.5 0 0
23:50 1025 30.27 854 25.22 12.9 55.2 59 5.2 41.4 0 0
23:55 1025 30.27 854 25.22 12.8 55 59 5 41 0 0
24:00 1025 30.27 854 25.22 13.1 55.5 60 5.6 42 0 0